Time;durP1;ratioP1;P1;durP2;ratioP2;P2;SDS_P1;SDS_P2;PMS_P1;PMS_P2;Temp;Humidity;BMP_temperature;BMP_pressure;BME280_temperature;BME280_humidity;BME280_pressure;Samples;Min_cycle;Max_cycle;Signal;HPM_P1;HPM_P2
2022/01/01 00:01:43;;;;;;;54.72;21.90;;;;;;;14.34;70.40;101149.88;4965862;28;119759;-93
2022/01/01 00:04:09;;;;;;;56.25;26.30;;;;;;;14.65;70.99;101186.28;4980953;28;119520;-93
2022/01/01 00:06:35;;;;;;;47.47;20.55;;;;;;;14.31;70.72;101156.31;4982264;28;121527;-93
2022/01/01 00:09:01;;;;;;;52.05;17.63;;;;;;;14.65;70.13;101196.56;4996515;28;119688;-94
2022/01/01 00:11:27;;;;;;;56.17;19.08;;;;;;;14.66;70.14;101215.41;4971945;28;119858;-93
2022/01/01 00:13:52;;;;;;;57.83;19.33;;;;;;;14.63;70.45;101213.59;4979787;28;121659;-93
2022/01/01 00:16:38;;;;;;;57.05;20.80;;;;;;;14.64;70.84;101206.84;4950069;28;119530;-94
2022/01/01 00:19:04;;;;;;;62.25;18.05;;;;;;;14.71;70.21;101225.84;4939819;28;119865;-94
2022/01/01 00:21:29;;;;;;;63.60;21.38;;;;;;;14.69;70.87;101225.56;4933919;28;122150;-93
2022/01/01 00:23:55;;;;;;;64.05;21.90;;;;;;;14.77;71.72;101222.47;4898210;28;122436;-93
2022/01/01 00:26:21;;;;;;;57.55;16.20;;;;;;;14.79;70.86;101215.22;4927905;28;122919;-93
2022/01/01 00:28:50;;;;;;;57.42;16.92;;;;;;;14.73;70.67;101215.09;4923141;28;119695;-93
2022/01/01 00:31:16;;;;;;;54.88;17.40;;;;;;;14.80;70.85;101210.47;4929251;28;122551;-92
2022/01/01 00:33:44;;;;;;;47.97;13.25;;;;;;;14.85;70.98;101201.56;4927531;28;121934;-93
2022/01/01 00:36:17;;;;;;;52.60;14.65;;;;;;;14.85;70.93;101201.56;4927835;28;119593;-93
2022/01/01 00:38:43;;;;;;;51.83;12.30;;;;;;;14.68;70.19;101168.81;4896877;28;121586;-93
2022/01/01 00:41:09;;;;;;;51.60;13.57;;;;;;;14.85;70.57;101193.25;4931620;28;121570;-93
2022/01/01 00:43:35;;;;;;;60.63;11.95;;;;;;;14.70;69.89;101179.38;4927228;28;122469;-96
2022/01/01 00:46:00;;;;;;;56.15;10.63;;;;;;;14.87;69.02;101215.66;4944426;28;122284;-94
2022/01/01 00:48:26;;;;;;;61.85;9.85;;;;;;;14.73;69.48;101190.25;4930798;28;119469;-96
2022/01/01 00:50:52;;;;;;;50.53;9.60;;;;;;;14.73;69.18;101198.53;4950818;28;120894;-92
2022/01/01 00:53:18;;;;;;;48.67;9.35;;;;;;;14.28;69.27;101138.72;4927414;28;122462;-94
2022/01/01 00:55:43;;;;;;;51.08;8.65;;;;;;;14.73;69.31;101215.09;4964274;28;119569;-95
2022/01/01 00:58:09;;;;;;;48.22;9.35;;;;;;;14.67;69.25;101225.25;4956424;28;122203;-94
2022/01/01 01:00:38;;;;;;;52.92;8.77;;;;;;;14.48;69.60;101198.94;4952804;28;122364;-94
2022/01/01 01:03:12;;;;;;;59.47;8.75;;;;;;;14.62;69.78;101214.81;4975429;28;120061;-93
2022/01/01 01:05:39;;;;;;;48.67;9.60;;;;;;;14.42;70.10;101192.47;4968934;28;123260;-94
2022/01/01 01:08:09;;;;;;;56.28;8.68;;;;;;;14.60;70.03;101227.56;4966805;28;119463;-93
2022/01/01 01:10:36;;;;;;;53.80;8.52;;;;;;;14.60;69.83;101230.31;4980746;28;120811;-96
2022/01/01 01:13:02;;;;;;;56.35;8.50;;;;;;;14.36;70.11;101202.59;4950122;28;123200;-94
2022/01/01 01:15:30;;;;;;;48.00;8.52;;;;;;;14.57;69.59;101231.25;4965186;28;119701;-94
2022/01/01 01:18:00;;;;;;;40.55;7.40;;;;;;;14.41;69.61;101196.44;4965584;28;122746;-94
2022/01/01 01:20:28;;;;;;;45.50;8.27;;;;;;;14.59;69.47;101229.56;4951425;28;123557;-93
2022/01/01 01:22:54;;;;;;;44.67;8.40;;;;;;;14.33;69.18;101190.50;4956687;28;119545;-95
2022/01/01 01:25:22;;;;;;;48.70;8.27;;;;;;;14.20;69.59;101175.38;4955046;28;122127;-94
2022/01/01 01:27:50;;;;;;;41.42;8.07;;;;;;;14.53;69.86;101230.66;4952818;28;119484;-95
2022/01/01 01:30:17;;;;;;;46.97;7.70;;;;;;;14.47;69.74;101215.97;4985869;28;120576;-94
2022/01/01 01:32:44;;;;;;;43.30;7.05;;;;;;;14.16;70.11;101186.53;4951916;28;123551;-95
2022/01/01 01:35:11;;;;;;;50.20;7.68;;;;;;;14.53;69.87;101236.19;4984077;28;120603;-94
2022/01/01 01:37:37;;;;;;;39.70;7.47;;;;;;;14.55;70.27;101242.78;4949129;28;121210;-94
2022/01/01 01:40:04;;;;;;;42.53;6.72;;;;;;;14.44;70.20;101231.47;4949183;28;121653;-94
2022/01/01 01:42:31;;;;;;;45.83;7.40;;;;;;;14.53;69.99;101242.47;4965740;28;119401;-94
2022/01/01 01:44:57;;;;;;;53.10;8.32;;;;;;;14.56;69.59;101246.28;4951508;28;120875;-95
2022/01/01 01:47:29;;;;;;;43.65;8.65;;;;;;;14.34;69.62;101219.63;4967836;28;123153;-94
2022/01/01 01:49:57;;;;;;;43.15;7.72;;;;;;;14.57;69.73;101256.09;4982229;28;120827;-95
2022/01/01 01:52:24;;;;;;;41.15;6.95;;;;;;;14.57;69.75;101251.34;4981051;28;121264;-93
2022/01/01 01:54:54;;;;;;;44.33;7.40;;;;;;;14.31;69.44;101223.31;4957805;28;118715;-94
2022/01/01 01:57:20;;;;;;;44.72;7.20;;;;;;;14.56;69.78;101260.09;4974475;28;124215;-95
2022/01/01 01:59:45;;;;;;;43.60;7.53;;;;;;;14.01;69.48;101191.94;4950620;28;123676;-94
2022/01/01 02:02:12;;;;;;;41.50;7.90;;;;;;;14.21;69.63;101215.53;4965655;28;119651;-93
2022/01/01 02:04:37;;;;;;;48.80;7.25;;;;;;;14.49;69.70;101258.44;4948711;28;121076;-95
2022/01/01 02:07:06;;;;;;;45.40;8.95;;;;;;;14.51;69.65;101269.78;4967991;28;121908;-96
2022/01/01 02:09:35;;;;;;;39.92;6.97;;;;;;;14.28;69.77;101232.53;4987087;28;119514;-95
2022/01/01 02:12:06;;;;;;;46.97;9.38;;;;;;;14.29;69.67;101225.00;4978222;28;121138;-93
2022/01/01 02:17:20;;;;;;;42.65;7.97;;;;;;;14.43;69.80;101243.72;4982579;28;120680;-94
2022/01/01 02:19:59;;;;;;;48.88;7.78;;;;;;;14.50;69.72;101262.72;4949492;28;123107;-95
2022/01/01 02:22:26;;;;;;;47.38;8.48;;;;;;;14.48;69.86;101273.47;4971984;28;119333;-95
2022/01/01 02:24:53;;;;;;;45.67;7.13;;;;;;;14.42;69.44;101270.50;4959418;28;121626;-93
2022/01/01 02:27:19;;;;;;;45.35;8.05;;;;;;;14.48;69.55;101283.75;4936620;28;122188;-95
2022/01/01 02:29:45;;;;;;;49.00;8.30;;;;;;;14.46;69.45;101281.44;4958808;28;119450;-93
2022/01/01 02:32:13;;;;;;;45.85;8.88;;;;;;;14.45;69.36;101284.66;4952888;28;122105;-93
2022/01/01 02:34:40;;;;;;;54.00;8.38;;;;;;;14.13;69.22;101254.44;4953276;28;120530;-94
2022/01/01 02:37:07;;;;;;;53.83;8.68;;;;;;;14.16;69.33;101263.78;4935809;28;121468;-92
2022/01/01 02:39:33;;;;;;;47.40;7.63;;;;;;;14.34;69.38;101296.13;4955082;28;122110;-93
2022/01/01 02:41:59;;;;;;;52.13;8.50;;;;;;;13.85;69.35;101210.78;4964725;28;119429;-93
2022/01/01 02:44:27;;;;;;;55.42;9.48;;;;;;;14.08;69.59;101246.78;4953409;28;122509;-93
2022/01/01 02:46:56;;;;;;;50.90;9.27;;;;;;;13.87;69.37;101211.88;4970514;28;120900;-96
2022/01/01 02:49:26;;;;;;;52.25;9.05;;;;;;;13.92;69.25;101211.25;4949821;28;119039;-93
2022/01/01 02:51:54;;;;;;;62.90;9.63;;;;;;;14.05;69.32;101247.72;4966640;28;121285;-95
2022/01/01 02:54:20;;;;;;;50.72;9.07;;;;;;;14.24;69.18;101287.13;4982195;28;119596;-94
2022/01/01 02:56:46;;;;;;;57.78;9.38;;;;;;;13.81;69.76;101225.50;4983368;28;120572;-93
2022/01/01 02:59:12;;;;;;;53.13;9.93;;;;;;;13.89;69.25;101250.78;4964516;28;122115;-94
2022/01/01 03:01:37;;;;;;;49.60;8.95;;;;;;;13.91;69.61;101248.31;4963420;28;119177;-94
2022/01/01 03:04:04;;;;;;;68.05;10.57;;;;;;;14.09;69.57;101283.41;4953409;28;120896;-93
2022/01/01 03:06:30;;;;;;;62.92;9.65;;;;;;;14.00;69.38;101272.41;4968693;28;122211;-93
2022/01/01 03:08:56;;;;;;;53.75;9.23;;;;;;;13.84;69.59;101248.63;4966027;28;119237;-94
2022/01/01 03:11:23;;;;;;;53.42;9.35;;;;;;;14.37;69.49;101328.31;4963413;28;121313;-95
2022/01/01 03:13:49;;;;;;;61.00;9.43;;;;;;;13.89;69.46;101267.31;4954229;28;121852;-94
2022/01/01 03:16:17;;;;;;;56.35;9.00;;;;;;;13.82;69.13;101253.84;4966583;28;122143;-94
2022/01/01 03:18:43;;;;;;;50.08;8.65;;;;;;;14.16;69.08;101304.41;4965070;28;121795;-94
2022/01/01 03:21:09;;;;;;;52.97;9.27;;;;;;;13.81;69.08;101257.84;4966253;28;119376;-93
2022/01/01 03:23:35;;;;;;;52.38;8.48;;;;;;;14.34;69.26;101330.03;4973653;28;121880;-96
2022/01/01 03:26:00;;;;;;;57.70;8.52;;;;;;;14.22;68.63;101322.69;4953626;28;123480;-94
2022/01/01 03:28:27;;;;;;;52.53;8.98;;;;;;;14.33;69.50;101324.97;4980332;28;119586;-95
2022/01/01 03:30:53;;;;;;;54.35;8.35;;;;;;;14.10;69.10;101299.50;4984886;28;121149;-93
2022/01/01 03:33:19;;;;;;;57.90;8.45;;;;;;;14.33;68.99;101334.00;4963942;28;119027;-93
2022/01/01 03:35:44;;;;;;;66.25;13.55;;;;;;;14.31;69.32;101335.69;4948138;28;119618;-94
2022/01/01 03:38:10;;;;;;;81.07;17.80;;;;;;;14.11;69.43;101314.06;4979936;28;121643;-95
2022/01/01 03:40:36;;;;;;;59.03;11.38;;;;;;;14.37;70.41;101339.38;4952614;28;119886;-94
2022/01/01 03:43:01;;;;;;;53.28;10.68;;;;;;;14.25;69.83;101305.19;4952485;28;121915;-95
2022/01/01 03:45:27;;;;;;;55.55;10.15;;;;;;;14.39;69.49;101337.69;4963712;28;120515;-93
2022/01/01 03:47:53;;;;;;;48.63;10.13;;;;;;;14.42;69.43;101336.00;4954406;28;119023;-93
2022/01/01 03:50:21;;;;;;;55.08;9.73;;;;;;;14.29;69.30;101313.31;4959593;28;122449;-94
2022/01/01 03:52:47;;;;;;;49.60;9.73;;;;;;;14.30;69.17;101318.38;4956510;28;121948;-95
2022/01/01 03:55:14;;;;;;;58.13;11.05;;;;;;;14.48;69.99;101347.22;4961847;28;118668;-94
2022/01/01 03:57:40;;;;;;;52.22;9.05;;;;;;;14.31;69.71;101321.91;4970324;28;122295;-94
2022/01/01 04:00:07;;;;;;;54.72;9.73;;;;;;;14.57;69.23;101364.53;4956222;28;118943;-94
2022/01/01 04:02:40;;;;;;;53.67;9.05;;;;;;;14.57;70.41;101352.72;4947170;28;122263;-95
2022/01/01 04:05:06;;;;;;;57.25;9.15;;;;;;;14.09;69.52;101289.72;4960266;28;121898;-93
2022/01/01 04:07:35;;;;;;;55.28;8.80;;;;;;;14.25;69.20;101310.72;4972614;28;119468;-94
2022/01/01 04:10:00;;;;;;;43.65;8.10;;;;;;;14.54;69.10;101354.44;4938314;28;122118;-94
2022/01/01 04:12:26;;;;;;;50.90;8.68;;;;;;;14.29;69.52;101319.59;4949886;28;122124;-94
2022/01/01 04:14:53;;;;;;;59.97;9.00;;;;;;;14.51;68.96;101360.09;4964177;28;119733;-93
2022/01/01 04:17:19;;;;;;;58.15;8.43;;;;;;;14.43;69.16;101343.88;4959168;28;122183;-95
2022/01/01 04:19:44;;;;;;;59.08;9.93;;;;;;;14.50;69.01;101362.09;4957212;28;122355;-94
2022/01/01 04:22:12;;;;;;;49.53;9.45;;;;;;;14.30;69.27;101336.94;4959416;28;122278;-95
2022/01/01 04:24:38;;;;;;;55.05;9.02;;;;;;;14.34;69.11;101340.28;4951432;28;124018;-94
2022/01/01 04:27:05;;;;;;;48.35;9.25;;;;;;;14.50;69.85;101375.91;4955091;28;119582;-94
2022/01/01 04:29:32;;;;;;;55.30;8.88;;;;;;;14.53;69.41;101388.03;4954137;28;121094;-94
2022/01/01 04:31:59;;;;;;;51.50;8.70;;;;;;;14.53;69.88;101380.50;4946554;28;123096;-94
2022/01/01 04:34:26;;;;;;;45.55;8.15;;;;;;;14.35;69.60;101348.09;4941800;28;119404;-95
2022/01/01 04:37:01;;;;;;;47.10;8.75;;;;;;;14.55;68.94;101378.03;4960962;28;121447;-95
2022/01/01 04:39:27;;;;;;;50.42;8.07;;;;;;;14.57;68.53;101383.09;4959930;28;120628;-93
2022/01/01 04:41:53;;;;;;;56.53;7.75;;;;;;;14.56;68.45;101376.81;4988176;28;119211;-93
2022/01/01 04:44:19;;;;;;;43.22;7.80;;;;;;;14.50;68.42;101386.94;4957718;28;122970;-94
2022/01/01 04:46:47;;;;;;;46.15;8.60;;;;;;;14.52;70.28;101390.00;4960239;28;119355;-94
2022/01/01 04:49:13;;;;;;;44.63;8.02;;;;;;;14.58;70.04;101401.19;4960596;28;121986;-94
2022/01/01 04:51:39;;;;;;;41.35;7.57;;;;;;;14.61;70.28;101397.50;4958876;28;120109;-94
2022/01/01 04:54:11;;;;;;;45.80;8.13;;;;;;;14.62;70.60;101397.06;4952536;28;119441;-95
2022/01/01 04:56:43;;;;;;;47.35;7.72;;;;;;;14.47;69.90;101362.25;4955768;28;120873;-95
2022/01/01 04:59:08;;;;;;;43.28;8.60;;;;;;;14.60;70.03;101402.28;4939444;28;122434;-94
2022/01/01 05:01:34;;;;;;;42.60;7.82;;;;;;;14.42;69.54;101369.88;4963254;28;119620;-93
2022/01/01 05:04:00;;;;;;;43.17;7.35;;;;;;;14.71;69.86;101410.09;4964274;28;122155;-94
2022/01/01 05:06:26;;;;;;;51.60;8.73;;;;;;;14.65;70.41;101395.34;4941630;28;119484;-94
2022/01/01 05:08:52;;;;;;;48.25;8.18;;;;;;;14.78;70.32;101414.53;4941838;28;121006;-94
2022/01/01 05:11:17;;;;;;;45.15;7.90;;;;;;;14.60;69.94;101396.75;4960613;28;121719;-93
2022/01/01 05:13:43;;;;;;;42.92;8.07;;;;;;;14.77;69.83;101413.78;4974933;28;118690;-94
2022/01/01 05:16:14;;;;;;;44.45;8.38;;;;;;;14.74;69.40;101425.75;4975428;28;122354;-94
2022/01/01 05:18:40;;;;;;;49.38;9.02;;;;;;;14.72;69.35;101420.69;4960722;28;122152;-94
2022/01/01 05:21:07;;;;;;;48.45;8.77;;;;;;;14.62;68.92;101410.09;4950396;28;119273;-94
2022/01/01 05:23:32;;;;;;;47.25;7.90;;;;;;;14.76;68.72;101430.81;4947528;28;121953;-94
2022/01/01 05:25:58;;;;;;;46.85;7.90;;;;;;;14.68;68.51;101425.59;4942204;28;119610;-94
2022/01/01 05:28:24;;;;;;;43.88;7.95;;;;;;;14.65;68.20;101428.50;4960098;28;119790;-94
2022/01/01 05:30:50;;;;;;;40.45;7.72;;;;;;;14.42;68.19;101397.47;4969079;28;120697;-95
2022/01/01 05:33:16;;;;;;;50.13;8.45;;;;;;;14.52;68.57;101411.34;4937144;28;119334;-94
2022/01/01 05:35:42;;;;;;;47.67;8.35;;;;;;;14.66;68.38;101433.56;4992945;28;119232;-93
2022/01/01 05:38:08;;;;;;;44.38;8.00;;;;;;;14.64;68.33;101441.53;4944591;28;122121;-93
2022/01/01 05:40:33;;;;;;;43.72;8.32;;;;;;;14.66;68.36;101446.59;4965670;28;119248;-94
2022/01/01 05:42:59;;;;;;;48.67;8.32;;;;;;;14.55;69.43;101422.22;4941528;28;120920;-94
2022/01/01 05:45:24;;;;;;;48.67;8.38;;;;;;;14.64;69.69;101435.25;4963312;28;122542;-94
2022/01/01 05:47:53;;;;;;;39.92;7.45;;;;;;;14.54;68.81;101420.69;4949111;28;121163;-94
2022/01/01 05:50:20;;;;;;;44.17;7.32;;;;;;;14.56;69.01;101428.50;4938817;28;121971;-94
2022/01/01 05:52:46;;;;;;;43.72;8.57;;;;;;;14.61;69.65;101422.38;4968013;28;119364;-93
2022/01/01 05:55:15;;;;;;;43.03;7.25;;;;;;;14.69;69.25;101443.72;4961715;28;119793;-93
2022/01/01 05:57:40;;;;;;;47.15;8.10;;;;;;;14.67;69.89;101448.16;4947673;28;123257;-94
2022/01/01 06:00:10;;;;;;;44.40;8.32;;;;;;;14.55;69.09;101436.03;4973703;28;120009;-95
2022/01/01 06:02:39;;;;;;;47.50;7.70;;;;;;;14.69;68.57;101457.50;4960220;28;121245;-93
2022/01/01 06:05:05;;;;;;;38.75;7.38;;;;;;;14.54;68.04;101428.97;4943092;28;123296;-94
2022/01/01 06:07:31;;;;;;;49.15;9.10;;;;;;;14.63;68.83;101451.03;4975436;28;120332;-94
2022/01/01 06:09:59;;;;;;;47.50;8.05;;;;;;;14.39;69.19;101414.97;4943207;28;122371;-95
2022/01/01 06:12:26;;;;;;;44.53;8.10;;;;;;;14.51;69.06;101435.41;4963825;28;119419;-93
2022/01/01 06:14:52;;;;;;;40.60;7.68;;;;;;;14.58;68.21;101439.84;4956544;28;121304;-94
2022/01/01 06:17:20;;;;;;;45.20;7.80;;;;;;;14.68;68.27;101452.44;4966800;28;119259;-94
2022/01/01 06:19:46;;;;;;;48.17;8.38;;;;;;;14.62;68.10;101455.03;4966165;28;119905;-94
2022/01/01 06:22:13;;;;;;;45.60;9.25;;;;;;;14.56;68.29;101442.31;4977158;28;121053;-94
2022/01/01 06:24:39;;;;;;;49.63;8.85;;;;;;;14.62;68.71;101449.50;4941897;28;123008;-93
2022/01/01 06:27:05;;;;;;;45.47;8.77;;;;;;;14.65;69.15;101458.88;4939216;28;119736;-93
2022/01/01 06:29:31;;;;;;;43.67;8.80;;;;;;;14.52;68.49;101439.69;4954732;28;119885;-94
2022/01/01 06:31:56;;;;;;;52.78;8.70;;;;;;;14.65;68.46;101465.16;4953638;28;118857;-94
2022/01/01 06:34:22;;;;;;;43.83;8.75;;;;;;;14.31;70.10;101410.97;4971747;28;119342;-94
2022/01/01 06:36:50;;;;;;;36.53;6.75;;;;;;;14.50;69.38;101452.44;4937673;28;121999;-95
2022/01/01 06:39:16;;;;;;;43.80;7.88;;;;;;;14.48;68.96;101433.56;4942468;28;119168;-95
2022/01/01 06:41:42;;;;;;;50.47;8.35;;;;;;;14.50;68.23;101452.44;4976312;28;121131;-93
2022/01/01 06:44:10;;;;;;;49.08;8.27;;;;;;;14.47;67.87;101459.63;4949616;28;123239;-93
2022/01/01 06:46:37;;;;;;;45.83;8.80;;;;;;;14.60;67.82;101479.56;4957646;28;119526;-94
2022/01/01 06:49:05;;;;;;;42.33;8.32;;;;;;;14.54;68.11;101470.38;4946410;28;121437;-94
2022/01/01 06:51:32;;;;;;;43.45;8.65;;;;;;;14.62;68.88;101481.88;4960571;28;119426;-92
2022/01/01 06:53:58;;;;;;;36.75;7.63;;;;;;;14.64;68.60;101482.94;4959599;28;119693;-94
2022/01/01 06:56:27;;;;;;;41.35;8.50;;;;;;;14.42;68.43;101457.44;4957800;28;122067;-95
2022/01/01 06:58:52;;;;;;;45.20;8.55;;;;;;;14.54;68.04;101475.91;4962336;28;119423;-94
2022/01/01 07:01:18;;;;;;;43.85;8.55;;;;;;;14.33;67.80;101438.88;4977612;28;121174;-94
2022/01/01 07:03:44;;;;;;;42.65;8.20;;;;;;;14.60;67.92;101487.09;4994561;28;121174;-94
2022/01/01 07:06:09;;;;;;;45.08;9.07;;;;;;;14.45;67.66;101478.66;4956651;28;119596;-94
2022/01/01 07:08:35;;;;;;;47.53;8.85;;;;;;;14.34;68.83;101450.69;4977910;28;119646;-93
2022/01/01 07:11:00;;;;;;;36.88;8.13;;;;;;;14.57;68.32;101497.06;4974081;28;121884;-95
2022/01/01 07:13:26;;;;;;;50.20;8.77;;;;;;;14.61;68.68;101511.47;4978344;28;120907;-94
2022/01/01 07:15:54;;;;;;;49.88;9.18;;;;;;;14.61;68.31;101519.78;4956570;28;120196;-94
2022/01/01 07:18:20;;;;;;;40.45;9.20;;;;;;;14.60;68.77;101523.75;4966010;28;118699;-93
2022/01/01 07:20:48;;;;;;;45.55;8.85;;;;;;;14.51;68.05;101509.19;4946297;28;122084;-94
2022/01/01 07:23:14;;;;;;;52.25;10.52;;;;;;;14.55;68.45;101524.38;4972549;28;121652;-92
2022/01/01 07:25:39;;;;;;;38.42;8.63;;;;;;;14.53;68.14;101532.34;4955844;28;118729;-94
2022/01/01 07:28:05;;;;;;;58.20;10.30;;;;;;;14.21;67.96;101491.44;4945884;28;121212;-94
2022/01/01 07:30:30;;;;;;;46.80;10.43;;;;;;;14.45;68.27;101544.13;4975333;28;121688;-94
2022/01/01 07:32:56;;;;;;;42.10;9.27;;;;;;;14.50;68.20;101554.56;4978010;28;119626;-94
2022/01/01 07:35:22;;;;;;;49.63;10.13;;;;;;;14.48;68.25;101557.78;4961172;28;122947;-94
2022/01/01 07:37:49;;;;;;;46.58;9.75;;;;;;;14.18;68.37;101517.94;4963702;28;119991;-94
2022/01/01 07:40:18;;;;;;;49.85;9.70;;;;;;;14.48;68.38;101560.56;4979939;28;119560;-94
2022/01/01 07:42:45;;;;;;;55.75;9.75;;;;;;;14.17;68.64;101516.41;4976176;28;123325;-94
2022/01/01 07:45:12;;;;;;;48.50;9.40;;;;;;;14.50;68.17;101558.09;4938050;28;119405;-94
2022/01/01 07:47:37;;;;;;;39.00;9.02;;;;;;;14.51;68.55;101567.91;4962159;28;120144;-93
2022/01/01 07:50:04;;;;;;;51.22;9.65;;;;;;;14.52;68.49;101571.44;4945373;28;122113;-95
2022/01/01 07:52:30;;;;;;;48.30;9.60;;;;;;;14.47;68.53;101570.06;4978230;28;119410;-94
2022/01/01 07:54:55;;;;;;;50.72;10.52;;;;;;;14.53;69.15;101579.28;4997945;28;119817;-93
2022/01/01 07:57:21;;;;;;;46.88;9.38;;;;;;;14.41;69.51;101547.00;4955958;28;119536;-94
2022/01/01 07:59:47;;;;;;;43.28;9.35;;;;;;;14.52;69.10;101565.94;4960179;28;121094;-94
2022/01/01 08:02:12;;;;;;;46.35;9.10;;;;;;;14.41;68.65;101549.75;4935977;28;123104;-94
2022/01/01 08:04:38;;;;;;;45.80;9.55;;;;;;;14.47;69.54;101559.03;4946244;28;120243;-94
2022/01/01 08:07:03;;;;;;;46.78;9.68;;;;;;;14.62;69.19;101576.53;4950876;28;120928;-96
2022/01/01 08:09:29;;;;;;;48.72;9.27;;;;;;;14.37;68.54;101549.13;4942603;28;123021;-95
2022/01/01 08:11:55;;;;;;;51.50;10.30;;;;;;;14.64;68.55;101590.63;4943450;28;119045;-93
2022/01/01 08:14:24;;;;;;;50.92;9.80;;;;;;;14.57;68.63;101571.59;4977806;28;122493;-95
2022/01/01 08:16:56;;;;;;;47.63;9.75;;;;;;;14.68;68.70;101585.75;4961790;28;122118;-94
2022/01/01 08:19:22;;;;;;;42.87;8.87;;;;;;;14.46;68.40;101556.72;4956585;28;121213;-94
2022/01/01 08:21:48;;;;;;;50.30;9.75;;;;;;;14.60;67.79;101584.50;4975739;28;119340;-94
2022/01/01 08:24:17;;;;;;;45.65;9.68;;;;;;;14.64;67.65;101592.63;4960600;28;120059;-94
2022/01/01 08:26:42;;;;;;;47.42;9.27;;;;;;;14.47;67.64;101574.81;4974378;28;122565;-95
2022/01/01 08:29:08;;;;;;;50.50;9.73;;;;;;;14.55;68.80;101590.63;4946693;28;122162;-93
2022/01/01 08:31:34;;;;;;;43.33;8.85;;;;;;;14.63;68.80;101597.38;4974401;28;119862;-94
2022/01/01 08:33:59;;;;;;;45.20;9.35;;;;;;;14.39;68.14;101574.28;4957151;28;121375;-94
2022/01/01 08:36:25;;;;;;;52.80;8.88;;;;;;;14.58;68.10;101603.50;4958729;28;121468;-95
2022/01/01 08:38:50;;;;;;;50.78;9.98;;;;;;;14.29;67.83;101573.50;4948198;28;118685;-94
2022/01/01 08:41:16;;;;;;;48.97;9.20;;;;;;;14.62;68.28;101623.47;4956038;28;122079;-94
2022/01/01 08:43:42;;;;;;;49.30;11.55;;;;;;;14.64;68.99;101629.28;4941537;28;121539;-95
2022/01/01 08:46:07;;;;;;;62.97;10.68;;;;;;;14.38;68.21;101579.03;4972258;28;121370;-94
2022/01/01 08:48:34;;;;;;;47.92;10.48;;;;;;;14.63;68.34;101618.72;4964233;28;120491;-94
2022/01/01 08:51:10;;;;;;;44.83;10.38;;;;;;;14.38;69.38;101587.31;4972267;28;119619;-94
2022/01/01 08:53:36;;;;;;;46.15;11.57;;;;;;;14.67;69.31;101638.69;4990668;28;119463;-94
2022/01/01 08:56:02;;;;;;;54.20;11.60;;;;;;;14.60;68.42;101625.91;4977484;28;121798;-94
2022/01/01 08:58:27;;;;;;;55.35;11.27;;;;;;;14.37;68.52;101588.53;4954124;28;118929;-94
2022/01/01 09:00:53;;;;;;;59.92;12.52;;;;;;;14.58;67.91;101639.41;4951400;28;122145;-94
2022/01/01 09:03:19;;;;;;;54.38;13.18;;;;;;;14.58;68.17;101636.66;4992399;28;119350;-96
2022/01/01 09:05:48;;;;;;;53.60;13.10;;;;;;;14.28;68.21;101598.78;4936498;28;121141;-94
2022/01/01 09:08:16;;;;;;;55.90;15.02;;;;;;;14.58;68.31;101641.41;4959376;28;121000;-93
2022/01/01 09:10:42;;;;;;;51.17;15.23;;;;;;;14.28;68.67;101593.25;4972961;28;119751;-94
2022/01/01 09:13:07;;;;;;;67.65;17.40;;;;;;;14.60;68.25;101641.72;4963044;28;121056;-94
2022/01/01 09:15:36;;;;;;;62.42;17.40;;;;;;;14.26;67.92;101592.94;4951567;28;121934;-94
2022/01/01 09:18:02;;;;;;;54.25;17.52;;;;;;;14.55;67.77;101642.31;4962409;28;119180;-93
2022/01/01 09:20:28;;;;;;;59.10;18.08;;;;;;;14.54;67.54;101658.13;4965284;28;119285;-94
2022/01/01 09:22:53;;;;;;;57.67;18.50;;;;;;;14.28;67.81;101626.38;4941547;28;119154;-94
2022/01/01 09:25:19;;;;;;;63.25;17.67;;;;;;;14.51;67.48;101652.72;4952602;28;119527;-94
2022/01/01 09:27:45;;;;;;;58.75;17.63;;;;;;;14.28;66.96;101638.19;4953642;28;123211;-95
2022/01/01 09:30:11;;;;;;;56.20;18.35;;;;;;;14.34;68.17;101643.88;4960514;28;118701;-94
2022/01/01 09:32:36;;;;;;;62.80;18.23;;;;;;;14.40;68.02;101658.63;4970511;28;122520;-93
2022/01/01 09:35:02;;;;;;;50.38;18.17;;;;;;;14.36;67.43;101663.50;4954848;28;121702;-93
2022/01/01 09:37:29;;;;;;;50.30;16.83;;;;;;;14.43;67.64;101674.31;4958141;28;119588;-94
2022/01/01 09:39:56;;;;;;;45.35;17.60;;;;;;;14.41;67.99;101683.00;4961179;28;122298;-93
2022/01/01 09:42:22;;;;;;;49.63;17.15;;;;;;;14.06;67.56;101620.91;4958915;28;122092;-94
2022/01/01 09:44:49;;;;;;;46.92;17.02;;;;;;;14.16;67.79;101624.47;4973369;28;119480;-95
2022/01/01 09:47:15;;;;;;;59.00;17.58;;;;;;;14.40;67.81;101686.22;4939527;28;121820;-94
2022/01/01 09:49:41;;;;;;;50.95;19.48;;;;;;;14.37;67.81;101665.06;4969627;28;119269;-94
2022/01/01 09:52:09;;;;;;;53.15;19.92;;;;;;;14.07;67.39;101628.72;4969322;28;119765;-94
2022/01/01 09:54:36;;;;;;;45.75;18.25;;;;;;;14.39;67.59;101679.94;4943449;28;122056;-93
2022/01/01 09:57:02;;;;;;;53.90;19.52;;;;;;;14.37;67.58;101685.13;4950310;28;118719;-95
2022/01/01 09:59:28;;;;;;;54.03;19.23;;;;;;;14.32;67.39;101677.44;4943487;28;121254;-95
2022/01/01 10:01:54;;;;;;;44.45;17.80;;;;;;;14.30;67.02;101666.09;4954049;28;122803;-94
2022/01/01 10:04:22;;;;;;;37.97;16.67;;;;;;;13.90;67.22;101605.31;4962448;28;122825;-95
2022/01/01 10:07:05;;;;;;;42.60;16.55;;;;;;;14.22;67.85;101673.13;4958496;28;122353;-94
2022/01/01 10:09:36;;;;;;;40.00;17.42;;;;;;;14.13;67.62;101689.59;4972777;28;119212;-94
2022/01/01 10:12:06;;;;;;;39.00;16.38;;;;;;;14.26;67.44;101712.38;4939222;28;121466;-93
2022/01/01 10:14:34;;;;;;;37.72;16.27;;;;;;;14.29;67.72;101705.19;4936045;28;123673;-93
2022/01/01 10:17:07;;;;;;;37.13;17.10;;;;;;;14.26;67.80;101698.59;4971931;28;120499;-95
2022/01/01 10:19:32;;;;;;;34.15;16.63;;;;;;;14.27;67.79;101693.84;4963029;28;118555;-94
2022/01/01 10:22:02;;;;;;;40.38;16.65;;;;;;;14.22;67.76;101680.63;4972120;28;122357;-94
2022/01/01 10:27:42;;;;;;;35.97;16.85;;;;;;;14.22;67.53;101683.38;4987115;28;119358;-93
2022/01/01 10:29:58;;;;;;;38.58;16.63;;;;;;;14.22;67.68;101697.19;4970401;28;118622;-94
2022/01/01 10:32:24;;;;;;;31.75;15.25;;;;;;;14.28;67.76;101698.91;4957992;28;121058;-93
2022/01/01 10:34:52;;;;;;;32.15;14.32;;;;;;;14.17;67.47;101683.94;4959727;28;120739;-94
2022/01/01 10:37:24;;;;;;;29.75;14.77;;;;;;;14.20;67.89;101694.09;4933620;28;120000;-95
2022/01/01 10:39:51;;;;;;;28.48;14.70;;;;;;;14.31;67.97;101695.22;4957127;28;121352;-94
2022/01/01 10:42:18;;;;;;;28.25;14.77;;;;;;;14.37;67.99;101703.69;4941835;28;121766;-94
2022/01/01 10:44:53;;;;;;;26.30;13.88;;;;;;;14.36;67.97;101693.88;4958918;28;119611;-94
2022/01/01 10:47:26;;;;;;;24.90;13.88;;;;;;;14.35;67.75;101692.34;4972567;28;120062;-93
2022/01/01 10:50:14;;;;;;;27.00;14.63;;;;;;;14.24;68.08;101678.94;4971175;28;121935;-93
2022/01/01 10:52:47;;;;;;;30.95;15.70;;;;;;;14.35;67.58;101689.56;4952064;28;121270;-94
2022/01/01 10:55:14;;;;;;;29.98;15.10;;;;;;;14.19;68.13;101662.19;4972498;28;122236;-94
2022/01/01 10:57:43;;;;;;;31.08;16.23;;;;;;;14.33;67.83;101675.47;4951664;28;119562;-93
2022/01/01 11:00:16;;;;;;;33.53;16.05;;;;;;;14.40;67.99;101680.72;4956040;28;121072;-92
2022/01/01 11:02:50;;;;;;;33.10;16.75;;;;;;;14.38;68.19;101675.63;4931303;28;123072;-94
2022/01/01 11:05:24;;;;;;;32.08;16.13;;;;;;;14.26;67.96;101665.47;4969009;28;119371;-94
2022/01/01 11:07:52;;;;;;;29.30;15.05;;;;;;;14.23;67.38;101660.84;4954796;28;121461;-93
2022/01/01 11:10:22;;;;;;;32.90;16.48;;;;;;;14.16;67.67;101647.31;4955301;28;122026;-95
2022/01/01 11:12:49;;;;;;;33.03;15.32;;;;;;;14.36;68.02;101672.56;4947910;28;119668;-93